createdAt,value
2022-11-03T00:02:13.796Z,67843.75
2022-11-03T00:04:41.508Z,67844.50
2022-11-03T00:07:09.906Z,67850.56
2022-11-03T00:09:37.561Z,67852.81
2022-11-03T00:12:05.279Z,67856.19
2022-11-03T00:14:32.814Z,67852.81
2022-11-03T00:17:00.334Z,67844.31
2022-11-03T00:19:27.798Z,67836.06
2022-11-03T00:21:58.708Z,67827.38
2022-11-03T00:24:26.318Z,67821.16
2022-11-03T00:26:53.773Z,67809.50
2022-11-03T00:29:21.765Z,67803.44
2022-11-03T00:31:49.122Z,67812.88
2022-11-03T00:34:16.550Z,67795.94
2022-11-03T00:36:45.086Z,67786.91
2022-11-03T00:39:13.172Z,67797.63
2022-11-03T00:41:41.369Z,67776.56
2022-11-03T00:44:10.743Z,67757.56
2022-11-03T00:46:38.706Z,67743.66
2022-11-03T00:49:06.491Z,67726.91
2022-11-03T00:51:37.190Z,67713.13
2022-11-03T00:54:05.915Z,67713.00
2022-11-03T00:56:38.923Z,67715.25
2022-11-03T00:59:08.838Z,67719.19
2022-11-03T01:01:45.893Z,67728.00
2022-11-03T01:04:35.536Z,67726.69
2022-11-03T01:07:04.496Z,67720.13
2022-11-03T01:09:39.609Z,67714.47
2022-11-03T01:12:10.600Z,67706.78
2022-11-03T01:14:42.705Z,67693.25
2022-11-03T01:17:16.485Z,67687.75
2022-11-03T01:19:44.591Z,67672.72
2022-11-03T01:22:12.774Z,67668.03
2022-11-03T01:24:41.713Z,67659.19
2022-11-03T01:27:14.488Z,67656.59
2022-11-03T01:29:42.368Z,67653.34
2022-11-03T01:32:10.001Z,67653.72
2022-11-03T01:34:37.496Z,67649.03
2022-11-03T01:37:05.694Z,67660.69
2022-11-03T01:39:34.208Z,67655.44
2022-11-03T01:42:01.608Z,67662.00
2022-11-03T01:44:31.195Z,67667.09
2022-11-03T01:47:09.368Z,67679.31
2022-11-03T01:49:53.348Z,67679.72
2022-11-03T01:52:34.270Z,67685.91
2022-11-03T01:55:09.625Z,67690.41
2022-11-03T01:58:10.485Z,67695.28
2022-11-03T02:00:38.604Z,67698.31
2022-11-03T02:03:06.672Z,67690.97
2022-11-03T02:05:34.998Z,67689.84
2022-11-03T02:08:11.789Z,67679.91
2022-11-03T02:10:39.707Z,67690.59
2022-11-03T02:13:16.719Z,67699.44
2022-11-03T02:15:46.038Z,67713.72
2022-11-03T02:18:14.919Z,67700.00
2022-11-03T02:20:43.035Z,67700.00
2022-11-03T02:23:35.121Z,67713.91
2022-11-03T02:26:03.074Z,67723.69
2022-11-03T02:28:32.851Z,67730.47
2022-11-03T02:31:10.663Z,67737.59
2022-11-03T02:33:49.890Z,67734.78
2022-11-03T02:36:38.653Z,67731.22
2022-11-03T02:39:11.921Z,67720.84
2022-11-03T02:41:40.637Z,67708.47
2022-11-03T02:44:14.753Z,67703.94
2022-11-03T02:46:44.408Z,67701.50
2022-11-03T02:49:12.121Z,67704.88
2022-11-03T02:51:40.709Z,67710.88
2022-11-03T02:54:14.522Z,67702.25
2022-11-03T02:56:50.420Z,67707.31
2022-11-03T02:59:28.017Z,67703.94
2022-11-03T03:02:06.039Z,67705.81
2022-11-03T03:04:49.932Z,67709.03
2022-11-03T03:07:24.736Z,67719.56
2022-11-03T03:10:02.118Z,67715.25
2022-11-03T03:12:32.586Z,67709.03
2022-11-03T03:15:02.512Z,67693.81
2022-11-03T03:17:50.290Z,67697.34
2022-11-03T03:20:59.724Z,67692.84
2022-11-03T03:23:32.351Z,67684.56
2022-11-03T03:26:13.758Z,67689.09
2022-11-03T03:28:54.619Z,67686.47
2022-11-03T03:31:24.637Z,67692.84
2022-11-03T03:34:04.396Z,67691.56
2022-11-03T03:36:34.341Z,67687.38
2022-11-03T03:39:04.813Z,67696.06
2022-11-03T03:41:34.078Z,67691.69
2022-11-03T03:44:06.944Z,67684.03
2022-11-03T03:46:44.757Z,67682.50
2022-11-03T03:49:12.257Z,67682.88
2022-11-03T03:51:41.464Z,67687.19
2022-11-03T03:54:08.977Z,67683.06
2022-11-03T03:56:49.210Z,67682.13
2022-11-03T03:59:16.882Z,67685.50
2022-11-03T04:01:44.723Z,67685.53
2022-11-03T04:04:12.332Z,67684.56
2022-11-03T04:06:40.151Z,67682.31
2022-11-03T04:09:09.754Z,67674.81
2022-11-03T04:11:55.785Z,67687.97
2022-11-03T04:14:41.861Z,67680.25
2022-11-03T04:17:39.061Z,67668.97
2022-11-03T04:20:31.559Z,67662.94
2022-11-03T04:22:59.086Z,67651.66
2022-11-03T04:25:26.762Z,67640.94
2022-11-03T04:27:54.269Z,67628.38
2022-11-03T04:30:25.105Z,67620.28
2022-11-03T04:32:53.415Z,67605.63
2022-11-03T04:35:27.712Z,67598.09
2022-11-03T04:38:10.280Z,67592.47
2022-11-03T04:40:39.481Z,67585.13
2022-11-03T04:43:13.700Z,67574.03
2022-11-03T04:45:44.545Z,67571.25
2022-11-03T04:48:22.745Z,67562.06
2022-11-03T04:50:54.118Z,67557.34
2022-11-03T04:53:23.572Z,67553.00
2022-11-03T04:55:54.243Z,67543.97
2022-11-03T04:58:28.904Z,67542.63
2022-11-03T05:00:58.855Z,67540.59
2022-11-03T05:03:35.313Z,67528.06
2022-11-03T05:06:12.127Z,67520.53
2022-11-03T05:08:39.989Z,67515.44
2022-11-03T05:11:20.560Z,67518.25
2022-11-03T05:13:48.715Z,67518.44
2022-11-03T05:16:16.898Z,67507.19
2022-11-03T05:18:49.268Z,67511.28
2022-11-03T05:21:19.882Z,67508.13
2022-11-03T05:23:52.581Z,67495.38
2022-11-03T05:26:28.474Z,67498.53
2022-11-03T05:29:00.956Z,67493.69
2022-11-03T05:31:34.772Z,67485.59
2022-11-03T05:34:13.536Z,67485.03
2022-11-03T05:36:41.251Z,67488.41
2022-11-03T05:39:27.078Z,67493.47
2022-11-03T05:41:55.888Z,67495.94
2022-11-03T05:44:34.494Z,67503.63
2022-11-03T05:47:22.880Z,67508.13
2022-11-03T05:49:52.998Z,67509.63
2022-11-03T05:52:24.466Z,67510.19
2022-11-03T05:54:54.637Z,67511.88
2022-11-03T05:57:22.185Z,67515.22
2022-11-03T05:59:52.500Z,67508.69
2022-11-03T06:02:39.815Z,67500.09
2022-11-03T06:05:20.575Z,67499.09
2022-11-03T06:07:50.173Z,67497.56
2022-11-03T06:10:29.911Z,67487.28
2022-11-03T06:13:06.385Z,67479.59
2022-11-03T06:15:36.204Z,67491.78
2022-11-03T06:18:32.929Z,67503.41
2022-11-03T06:21:06.497Z,67514.13
2022-11-03T06:23:35.969Z,67523.34
2022-11-03T06:26:04.422Z,67519.03
2022-11-03T06:28:37.045Z,67517.16
2022-11-03T06:31:23.183Z,67521.66
2022-11-03T06:33:53.078Z,67522.19
2022-11-03T06:36:26.959Z,67529.16
2022-11-03T06:39:00.298Z,67535.38
2022-11-03T06:41:31.353Z,67544.38
2022-11-03T06:44:02.821Z,67547.41
2022-11-03T06:46:31.262Z,67565.41
2022-11-03T06:49:04.478Z,67564.69
2022-11-03T06:51:36.351Z,67568.25
2022-11-03T06:54:09.396Z,67585.53
2022-11-03T06:56:37.870Z,67594.91
2022-11-03T06:59:11.069Z,67598.28
2022-11-03T07:01:39.398Z,67601.88
2022-11-03T07:04:28.750Z,67616.69
2022-11-03T07:07:01.249Z,67621.03
2022-11-03T07:09:28.892Z,67637.75
2022-11-03T07:11:59.785Z,67651.31
2022-11-03T07:14:32.151Z,67659.53
2022-11-03T07:17:04.000Z,67664.09
2022-11-03T07:19:40.357Z,67688.31
2022-11-03T07:22:23.941Z,67711.09
2022-11-03T07:24:59.811Z,67721.81
2022-11-03T07:27:34.939Z,67729.34
2022-11-03T07:30:08.499Z,67742.13
2022-11-03T07:32:36.125Z,67746.09
2022-11-03T07:35:13.321Z,67751.72
2022-11-03T07:37:41.548Z,67781.44
2022-11-03T07:40:25.130Z,67841.69
2022-11-03T07:42:57.196Z,67894.25
2022-11-03T07:45:53.401Z,67954.16
2022-11-03T07:48:42.589Z,68018.81
2022-11-03T07:51:24.240Z,68083.47
2022-11-03T07:53:56.870Z,68082.72
2022-11-03T07:56:27.876Z,68091.56
2022-11-03T07:59:01.148Z,68077.44
2022-11-03T08:01:36.640Z,68094.03
2022-11-03T08:04:08.206Z,68113.84
2022-11-03T08:06:35.900Z,68193.50
2022-11-03T08:09:03.971Z,68276.56
2022-11-03T08:11:31.652Z,68337.03
2022-11-03T08:13:59.240Z,68355.75
2022-11-03T08:16:27.121Z,68412.44
2022-11-03T08:18:54.744Z,68474.09
2022-11-03T08:21:22.208Z,68437.00
2022-11-03T08:23:49.861Z,68396.91
2022-11-03T08:26:17.452Z,68407.16
2022-11-03T08:28:45.193Z,68390.88
2022-11-03T08:31:13.391Z,68358.94
2022-11-03T08:33:41.591Z,68348.75
2022-11-03T08:36:09.752Z,68338.16
2022-11-03T08:38:37.904Z,68335.16
2022-11-03T08:41:05.923Z,68366.31
2022-11-03T08:43:33.582Z,68370.88
2022-11-03T08:46:06.787Z,68348.38
2022-11-03T08:48:43.650Z,68313.78
2022-11-03T08:51:14.005Z,68321.72
2022-11-03T08:53:43.182Z,68357.25
2022-11-03T08:56:13.172Z,68397.31
2022-11-03T08:58:44.237Z,68417.56
2022-11-03T09:01:12.695Z,68460.09
2022-11-03T09:03:40.899Z,68518.38
2022-11-03T09:06:08.910Z,68514.78
2022-11-03T09:11:23.705Z,68533.88
2022-11-03T09:13:51.187Z,68503.22
2022-11-03T09:16:18.771Z,68513.47
2022-11-03T09:18:46.481Z,68517.81
2022-11-03T09:21:15.189Z,68533.31
2022-11-03T09:23:42.982Z,68532.56
2022-11-03T09:26:10.674Z,68562.06
2022-11-03T09:28:38.177Z,68570.41
2022-11-03T09:31:08.787Z,68511.00
2022-11-03T09:33:36.260Z,68455.34
2022-11-03T09:36:03.859Z,68465.38
2022-11-03T09:38:31.316Z,68462.34
2022-11-03T09:40:59.510Z,68471.63
2022-11-03T09:43:27.085Z,68480.31
2022-11-03T09:45:55.160Z,68464.25
2022-11-03T09:48:22.915Z,68477.88
2022-11-03T09:50:53.914Z,68484.88
2022-11-03T09:53:22.180Z,68506.47
2022-11-03T09:55:49.844Z,68504.75
2022-11-03T09:58:18.372Z,68512.13
2022-11-03T10:00:46.496Z,68523.47
2022-11-03T10:03:17.217Z,68533.13
2022-11-03T10:05:48.940Z,68529.72
2022-11-03T10:11:32.303Z,68544.47
2022-11-03T10:13:59.788Z,68549.03
2022-11-03T10:16:28.430Z,68563.22
2022-11-03T10:18:55.982Z,68575.13
2022-11-03T10:21:30.730Z,68573.03
2022-11-03T10:23:58.166Z,68566.63
2022-11-03T10:26:26.094Z,68560.38
2022-11-03T10:29:05.396Z,68557.53
2022-11-03T10:31:37.040Z,68575.53
2022-11-03T10:34:06.537Z,68563.97
2022-11-03T10:36:35.160Z,68576.28
2022-11-03T10:39:30.789Z,68571.16
2022-11-03T10:42:00.105Z,68574.00
2022-11-03T10:44:29.350Z,68583.09
2022-11-03T10:46:59.476Z,68574.00
2022-11-03T10:49:39.185Z,68563.03
2022-11-03T10:52:16.849Z,68539.94
2022-11-03T10:54:44.320Z,68558.50
2022-11-03T10:57:11.926Z,68581.38
2022-11-03T10:59:39.934Z,68574.00
2022-11-03T11:02:27.606Z,68597.84
2022-11-03T11:05:01.385Z,68599.94
2022-11-03T11:07:39.426Z,68606.94
2022-11-03T11:10:19.547Z,68636.47
2022-11-03T11:13:19.511Z,68642.56
2022-11-03T11:15:57.580Z,68612.81
2022-11-03T11:18:28.040Z,68632.13
2022-11-03T11:20:56.145Z,68626.44
2022-11-03T11:23:29.802Z,68634.41
2022-11-03T11:26:09.729Z,68633.63
2022-11-03T11:28:58.335Z,68633.06
2022-11-03T11:31:33.915Z,68632.69
2022-11-03T11:34:10.791Z,68646.88
2022-11-03T11:36:42.744Z,68644.44
2022-11-03T11:39:28.822Z,68640.63
2022-11-03T11:42:13.785Z,68636.66
2022-11-03T11:44:46.117Z,68649.19
2022-11-03T11:47:26.863Z,68657.50
2022-11-03T11:50:07.064Z,68639.88
2022-11-03T11:52:57.045Z,68635.34
2022-11-03T11:55:24.710Z,68621.53
2022-11-03T11:57:53.656Z,68598.78
2022-11-03T12:00:22.830Z,68627.38
2022-11-03T12:02:52.093Z,68631.56
2022-11-03T12:05:30.713Z,68633.06
2022-11-03T12:07:58.627Z,68659.97
2022-11-03T12:10:31.465Z,68643.28
2022-11-03T12:13:00.284Z,68635.34
2022-11-03T12:15:59.397Z,68629.66
2022-11-03T12:18:50.253Z,68634.22
2022-11-03T12:21:46.857Z,68588.72
2022-11-03T12:24:36.137Z,68628.34
2022-11-03T12:27:20.285Z,68620.00
2022-11-03T12:29:47.877Z,68624.34
2022-11-03T12:32:32.154Z,68611.88
2022-11-03T12:35:03.447Z,68596.91
2022-11-03T12:37:32.089Z,68611.28
2022-11-03T12:39:59.942Z,68612.25
2022-11-03T12:42:27.538Z,68619.81
2022-11-03T12:44:56.018Z,68622.47
2022-11-03T12:47:23.895Z,68602.78
2022-11-03T12:49:51.354Z,68581.75
2022-11-03T12:52:18.712Z,68589.72
2022-11-03T12:54:46.227Z,68576.28
2022-11-03T12:57:13.999Z,68590.66
2022-11-03T12:59:41.589Z,68579.50
2022-11-03T13:02:11.106Z,68553.00
2022-11-03T13:04:38.817Z,68543.16
2022-11-03T13:07:06.789Z,68545.81
2022-11-03T13:09:36.122Z,68539.75
2022-11-03T13:12:22.281Z,68516.66
2022-11-03T13:14:49.840Z,68519.50
2022-11-03T13:17:17.285Z,68532.56
2022-11-03T13:19:45.097Z,68522.13
2022-11-03T13:22:12.552Z,68537.69
2022-11-03T13:24:40.152Z,68528.97
2022-11-03T13:27:07.667Z,68522.34
2022-11-03T13:29:39.673Z,68521.78
2022-11-03T13:32:08.543Z,68524.06
2022-11-03T13:34:36.077Z,68508.16
2022-11-03T13:37:04.820Z,68504.19
2022-11-03T13:39:32.313Z,68498.50
2022-11-03T13:41:59.845Z,68479.75
2022-11-03T13:44:27.380Z,68466.16
2022-11-03T13:46:54.819Z,68446.28
2022-11-03T13:49:59.412Z,68462.75
2022-11-03T13:52:10.292Z,68441.00
2022-11-03T14:00:15.885Z,68442.88
2022-11-03T14:05:32.147Z,68445.53
2022-11-03T14:07:59.621Z,68436.06
2022-11-03T14:10:27.172Z,68432.88
2022-11-03T14:12:54.755Z,68422.47
2022-11-03T14:15:22.382Z,68417.94
2022-11-03T14:17:50.166Z,68413.00
2022-11-03T14:20:17.822Z,68401.84
2022-11-03T14:22:45.397Z,68407.91
2022-11-03T14:25:13.193Z,68389.00
2022-11-03T14:27:40.722Z,68385.41
2022-11-03T14:30:08.735Z,68385.41
2022-11-03T14:32:35.896Z,68375.41
2022-11-03T14:35:05.149Z,68368.78
2022-11-03T14:37:33.112Z,68361.78
2022-11-03T14:40:00.394Z,68356.88
2022-11-03T14:42:27.636Z,68353.28
2022-11-03T14:44:55.112Z,68355.56
2022-11-03T14:47:22.776Z,68350.44
2022-11-03T14:49:50.395Z,68352.16
2022-11-03T14:52:18.245Z,68347.03
2022-11-03T14:54:45.750Z,68354.81
2022-11-03T14:57:13.210Z,68341.75
2022-11-03T14:59:41.024Z,68341.19
2022-11-03T15:02:08.596Z,68341.00
2022-11-03T15:04:36.100Z,68338.34
2022-11-03T15:07:03.485Z,68332.88
2022-11-03T15:09:31.194Z,68334.19
2022-11-03T15:12:01.562Z,68322.28
2022-11-03T15:14:30.021Z,68320.19
2022-11-03T15:16:57.480Z,68325.69
2022-11-03T15:19:25.016Z,68320.75
2022-11-03T15:21:52.441Z,68315.47
2022-11-03T15:27:07.235Z,68311.88
2022-11-03T15:29:35.090Z,68300.75
2022-11-03T15:32:02.389Z,68297.34
2022-11-03T15:34:29.854Z,68306.03
2022-11-03T15:36:57.415Z,68300.00
2022-11-03T15:39:24.868Z,68297.16
2022-11-03T15:41:52.242Z,68294.88
2022-11-03T15:44:19.828Z,68300.94
2022-11-03T15:46:47.180Z,68300.00
2022-11-03T15:49:14.543Z,68304.91
2022-11-03T15:55:49.248Z,68300.94
2022-11-03T15:58:16.769Z,68296.59
2022-11-03T16:00:44.222Z,68298.47
2022-11-03T16:03:11.794Z,68298.47
2022-11-03T16:05:39.694Z,68292.63
2022-11-03T16:08:07.601Z,68285.81
2022-11-03T16:10:35.357Z,68293.00
2022-11-03T16:13:02.705Z,68291.28
2022-11-03T16:15:30.018Z,68283.56
2022-11-03T16:18:02.875Z,68284.13
2022-11-03T16:20:31.186Z,68282.97
2022-11-03T16:22:58.876Z,68274.50
2022-11-03T16:25:26.525Z,68278.25
2022-11-03T16:27:53.936Z,68271.66
2022-11-03T16:30:22.064Z,68277.13
2022-11-03T16:32:53.151Z,68272.03
2022-11-03T16:35:21.659Z,68274.09
2022-11-03T16:37:49.682Z,68270.31
2022-11-03T16:40:19.646Z,68277.69
2022-11-03T16:42:47.865Z,68267.31
2022-11-03T16:45:20.730Z,68276.94
2022-11-03T16:47:49.462Z,68266.56
2022-11-03T16:50:17.561Z,68266.94
2022-11-03T16:52:46.618Z,68259.19
2022-11-03T16:55:15.469Z,68262.59
2022-11-03T16:57:43.670Z,68261.66
2022-11-03T17:00:17.478Z,68262.59
2022-11-03T17:02:46.280Z,68259.00
2022-11-03T17:05:15.676Z,68264.84
2022-11-03T17:07:43.930Z,68265.41
2022-11-03T17:10:13.656Z,68274.88
2022-11-03T17:12:41.367Z,68265.03
2022-11-03T17:15:09.293Z,68271.09
2022-11-03T17:17:36.871Z,68272.03
2022-11-03T17:20:05.895Z,68276.94
2022-11-03T17:22:33.606Z,68269.75
2022-11-03T17:25:01.808Z,68267.69
2022-11-03T17:27:46.329Z,68270.53
2022-11-03T17:30:25.983Z,68274.50
2022-11-03T17:32:57.088Z,68273.94
2022-11-03T17:35:25.779Z,68279.22
2022-11-03T17:37:53.424Z,68280.16
2022-11-03T17:40:27.685Z,68280.16
2022-11-03T17:42:55.709Z,68282.41
2022-11-03T17:45:24.206Z,68281.88
2022-11-03T17:47:51.911Z,68282.41
2022-11-03T17:50:22.026Z,68280.72
2022-11-03T17:52:51.534Z,68284.88
2022-11-03T17:55:39.920Z,68295.63
2022-11-03T17:58:07.395Z,68295.47
2022-11-03T18:00:36.226Z,68291.50
2022-11-03T18:03:04.998Z,68290.53
2022-11-03T18:05:32.931Z,68290.53
2022-11-03T18:08:06.104Z,68293.19
2022-11-03T18:10:37.617Z,68293.56
2022-11-03T18:13:17.006Z,68302.06
2022-11-03T18:16:13.899Z,68301.69
2022-11-03T18:18:45.487Z,68297.72
2022-11-03T18:21:23.815Z,68306.59
2022-11-03T18:23:59.336Z,68302.25
2022-11-03T18:26:27.686Z,68308.69
2022-11-03T18:28:55.124Z,68315.28
2022-11-03T18:31:46.887Z,68314.91
2022-11-03T18:34:21.630Z,68317.00
2022-11-03T18:36:49.651Z,68312.09
2022-11-03T18:39:25.741Z,68315.28
2022-11-03T18:41:53.606Z,68314.16
2022-11-03T18:44:22.025Z,68313.59
2022-11-03T18:46:51.301Z,68314.72
2022-11-03T18:49:19.310Z,68315.28
2022-11-03T18:51:59.191Z,68311.88
2022-11-03T18:54:31.570Z,68309.63
2022-11-03T18:56:59.346Z,68318.88
2022-11-03T18:59:31.007Z,68313.03
2022-11-03T19:01:58.848Z,68307.91
2022-11-03T19:04:26.945Z,68312.66
2022-11-03T19:06:54.582Z,68308.84
2022-11-03T19:09:27.281Z,68305.44
2022-11-03T19:11:57.415Z,68310.00
2022-11-03T19:14:37.667Z,68305.44
2022-11-03T19:17:22.543Z,68304.91
2022-11-03T19:19:51.041Z,68296.78
2022-11-03T19:22:21.510Z,68297.16
2022-11-03T19:24:49.189Z,68303.19
2022-11-03T19:27:21.565Z,68302.63
2022-11-03T19:29:49.408Z,68296.78
2022-11-03T19:32:24.491Z,68298.28
2022-11-03T19:35:06.452Z,68299.59
2022-11-03T19:37:36.052Z,68294.13
2022-11-03T19:40:09.017Z,68296.78
2022-11-03T19:42:38.128Z,68288.84
2022-11-03T19:45:13.816Z,68293.75
2022-11-03T19:50:35.233Z,68283.19
2022-11-03T19:53:06.148Z,68278.06
2022-11-03T19:55:41.227Z,68285.06
2022-11-03T19:58:21.461Z,68272.41
2022-11-03T20:00:50.841Z,68273.34
2022-11-03T20:03:20.765Z,68269.94
2022-11-03T20:05:53.083Z,68266.56
2022-11-03T20:08:27.774Z,68273.34
2022-11-03T20:10:55.903Z,68280.53
2022-11-03T20:13:31.277Z,68270.91
2022-11-03T20:16:01.071Z,68281.88
2022-11-03T20:18:29.150Z,68284.88
2022-11-03T20:20:56.818Z,68281.88
2022-11-03T20:23:32.957Z,68279.00
2022-11-03T20:26:01.945Z,68279.97
2022-11-03T20:28:32.449Z,68277.91
2022-11-03T20:31:01.322Z,68274.50
2022-11-03T20:33:28.998Z,68272.22
2022-11-03T20:35:57.032Z,68275.63
2022-11-03T20:38:25.507Z,68279.97
2022-11-03T20:40:58.871Z,68276.94
2022-11-03T20:43:31.000Z,68275.44
2022-11-03T20:45:59.548Z,68276.19
2022-11-03T20:48:27.675Z,68277.13
2022-11-03T20:50:55.732Z,68274.50
2022-11-03T20:53:25.332Z,68271.09
2022-11-03T20:55:53.454Z,68272.22
2022-11-03T20:58:21.853Z,68269.38
2022-11-03T21:00:49.513Z,68279.97
2022-11-03T21:03:53.613Z,68285.63
2022-11-03T21:06:18.408Z,68284.69
2022-11-03T21:08:47.075Z,68273.34
2022-11-03T21:11:23.351Z,68268.81
2022-11-03T21:13:57.079Z,68284.88
2022-11-03T21:16:46.515Z,68271.66
2022-11-03T21:19:51.488Z,68272.78
2022-11-03T21:25:18.068Z,68268.25
2022-11-03T21:27:46.118Z,68260.50
2022-11-03T21:30:15.452Z,68268.44
2022-11-03T21:32:43.361Z,68262.22
2022-11-03T21:35:16.066Z,68265.63
2022-11-03T21:37:43.512Z,68269.94
2022-11-03T21:40:11.760Z,68274.66
2022-11-03T21:42:57.637Z,68267.50
2022-11-03T21:45:25.652Z,68259.56
2022-11-03T21:48:13.899Z,68266.75
2022-11-03T21:50:42.464Z,68267.13
2022-11-03T21:53:12.065Z,68275.63
2022-11-03T21:55:40.032Z,68281.47
2022-11-03T21:58:07.510Z,68272.41
2022-11-03T22:00:35.175Z,68268.44
2022-11-03T22:03:02.775Z,68274.28
2022-11-03T22:05:40.153Z,68268.06
2022-11-03T22:08:08.970Z,68270.91
2022-11-03T22:10:40.574Z,68271.25
2022-11-03T22:13:08.368Z,68265.81
2022-11-03T22:15:54.776Z,68264.66
2022-11-03T22:18:22.257Z,68264.66
2022-11-03T22:21:08.043Z,68262.97
2022-11-03T22:23:54.064Z,68259.00
2022-11-03T22:26:39.837Z,68250.88
2022-11-03T22:29:25.640Z,68252.75
2022-11-03T22:31:53.176Z,68248.63
2022-11-03T22:34:39.039Z,68242.75
2022-11-03T22:37:06.684Z,68249.56
2022-11-03T22:39:52.592Z,68246.72
2022-11-03T22:42:38.340Z,68242.75
2022-11-03T22:45:24.728Z,68247.31
2022-11-03T22:47:57.708Z,68245.59
2022-11-03T22:50:25.785Z,68246.34
2022-11-03T22:52:53.102Z,68246.53
2022-11-03T22:55:20.434Z,68243.72
2022-11-03T22:57:47.907Z,68241.63
2022-11-03T23:00:16.333Z,68247.69
2022-11-03T23:02:43.868Z,68241.63
2022-11-03T23:05:11.218Z,68241.63
2022-11-03T23:07:41.186Z,68243.72
2022-11-03T23:10:09.753Z,68242.41
2022-11-03T23:12:36.946Z,68243.91
2022-11-03T23:15:23.958Z,68246.53
2022-11-03T23:18:10.150Z,68245.59
2022-11-03T23:20:57.158Z,68245.03
2022-11-03T23:23:43.433Z,68243.91
2022-11-03T23:26:11.332Z,68241.06
2022-11-03T23:28:39.111Z,68242.75
2022-11-03T23:31:06.766Z,68246.16
2022-11-03T23:33:34.825Z,68245.03
2022-11-03T23:36:07.297Z,68241.06
2022-11-03T23:38:36.387Z,68238.22
2022-11-03T23:41:06.542Z,68237.66
2022-11-03T23:43:34.335Z,68230.31
2022-11-03T23:46:20.692Z,68229.75
2022-11-03T23:48:48.858Z,68228.03
2022-11-03T23:51:18.830Z,68224.06
2022-11-03T23:53:47.112Z,68210.88
2022-11-03T23:56:35.263Z,68219.72
2022-11-03T23:59:03.264Z,68218.41
